Time;durP1;ratioP1;P1;durP2;ratioP2;P2;SDS_P1;SDS_P2;PMS_P1;PMS_P2;Temp;Humidity;BMP_temperature;BMP_pressure;BME280_temperature;BME280_humidity;BME280_pressure;Samples;Min_cycle;Max_cycle;Signal;HPM_P1;HPM_P2
2020/12/09 00:00:19;;;;;;;55.90;38.00;;;5.50;99.90;;;5.71;79.30;100672.97;5108704;28;20387;-77
2020/12/09 00:02:48;;;;;;;53.10;37.57;;;5.50;99.90;;;5.61;79.61;100668.47;5074654;28;20052;-78
2020/12/09 00:05:15;;;;;;;55.20;38.10;;;5.50;99.90;;;5.59;79.58;100689.44;5076068;28;20115;-77
2020/12/09 00:07:43;;;;;;;51.60;38.40;;;5.40;99.90;;;5.68;79.56;100689.53;5076006;28;20440;-77
2020/12/09 00:10:11;;;;;;;51.37;37.20;;;5.40;99.90;;;5.67;79.54;100689.53;5075541;28;20038;-77
2020/12/09 00:12:38;;;;;;;48.33;35.27;;;5.40;99.90;;;5.67;79.45;100692.16;5075495;28;20045;-77
2020/12/09 00:15:09;;;;;;;57.80;36.90;;;5.50;99.90;;;5.66;79.29;100685.13;5075713;28;20129;-77
2020/12/09 00:17:38;;;;;;;49.20;36.10;;;5.50;99.90;;;5.61;79.42;100677.22;5074390;28;20071;-77
2020/12/09 00:20:06;;;;;;;52.53;35.47;;;5.50;99.90;;;4.83;79.23;100540.75;5075762;28;20133;-77
2020/12/09 00:22:34;;;;;;;50.90;35.97;;;5.50;99.90;;;5.64;79.17;100685.09;5075629;28;20048;-77
2020/12/09 00:25:03;;;;;;;49.47;35.20;;;5.50;99.90;;;5.61;78.61;100679.84;5074296;28;20044;-77
2020/12/09 00:27:34;;;;;;;51.70;35.08;;;5.50;99.90;;;5.55;78.76;100681.50;5075273;28;20052;-77
2020/12/09 00:30:05;;;;;;;50.20;36.23;;;5.40;99.90;;;5.68;78.94;100668.53;5075463;28;20118;-77
2020/12/09 00:32:34;;;;;;;55.50;36.87;;;5.40;99.90;;;5.56;78.99;100650.03;5075439;28;20044;-77
2020/12/09 00:35:07;;;;;;;47.80;35.45;;;5.50;99.90;;;5.60;79.06;100674.53;5075138;28;20498;-77
2020/12/09 00:37:34;;;;;;;;;;;5.40;99.90;;;5.29;79.79;100682.03;5075982;28;20094;-77
2020/12/09 00:40:04;;;;;;;44.90;33.47;;;5.20;99.90;;;5.02;79.67;100691.22;5075292;28;19943;-77
2020/12/09 00:42:33;;;;;;;52.40;36.03;;;4.90;99.90;;;4.86;80.65;100691.88;5075445;28;20131;-77
2020/12/09 00:45:04;;;;;;;51.27;36.40;;;4.70;99.90;;;4.77;81.46;100687.38;5075189;28;20044;-77
2020/12/09 00:47:31;;;;;;;50.13;36.47;;;4.60;99.90;;;4.36;81.97;100631.69;5075174;28;20033;-77
2020/12/09 00:52:49;;;;;;;50.42;36.35;;;4.50;99.90;;;4.98;82.12;100684.19;5073601;28;20110;-77
2020/12/09 00:55:19;;;;;;;55.73;38.03;;;4.70;99.90;;;5.13;81.93;100673.94;5073692;28;20395;-77
2020/12/09 00:57:51;;;;;;;55.10;37.25;;;5.00;99.90;;;5.24;82.21;100680.22;5073747;28;20056;-77
2020/12/09 01:00:20;;;;;;;55.35;39.72;;;5.10;99.90;;;5.32;81.91;100684.69;5073521;28;20063;-77
2020/12/09 01:02:54;;;;;;;52.27;34.60;;;5.20;99.90;;;5.25;81.27;100690.72;5073679;28;20044;-77
2020/12/09 01:05:24;;;;;;;52.13;36.33;;;5.20;99.90;;;5.11;80.92;100687.00;5074588;28;20045;-77
2020/12/09 01:07:53;;;;;;;55.85;37.45;;;5.00;99.90;;;4.94;80.93;100685.00;5074749;28;20072;-77
2020/12/09 01:10:20;;;;;;;53.97;36.80;;;4.80;99.90;;;4.85;81.77;100672.66;5074802;28;20051;-77
2020/12/09 01:12:50;;;;;;;56.60;37.13;;;4.70;99.90;;;5.01;82.20;100693.00;5074318;28;20036;-77
2020/12/09 01:15:18;;;;;;;59.60;38.67;;;4.80;99.90;;;5.11;81.51;100699.25;5074493;28;20067;-77
2020/12/09 01:17:47;;;;;;;55.00;38.23;;;4.90;99.90;;;5.07;80.91;100707.94;5074711;28;20090;-77
2020/12/09 01:20:15;;;;;;;52.73;37.83;;;5.00;99.90;;;5.12;80.78;100687.91;5074538;28;20045;-77
2020/12/09 01:22:44;;;;;;;50.80;36.10;;;5.00;99.90;;;5.03;80.49;100696.50;5074261;28;20421;-77
2020/12/09 01:25:12;;;;;;;50.30;35.50;;;4.90;99.90;;;4.89;79.75;100702.41;5074245;28;20494;-77
2020/12/09 01:27:40;;;;;;;53.43;36.27;;;4.80;99.90;;;4.91;80.00;100698.94;5073147;28;20056;-77
2020/12/09 01:30:09;;;;;;;53.67;35.10;;;4.70;99.90;;;4.92;79.52;100694.56;5074236;28;20148;-77
2020/12/09 01:32:36;;;;;;;45.13;31.37;;;4.70;99.90;;;4.81;80.22;100717.09;5074099;28;20109;-77
2020/12/09 01:35:09;;;;;;;37.33;28.03;;;4.80;99.90;;;4.91;80.16;100696.34;5074087;28;20501;-77
2020/12/09 01:37:37;;;;;;;55.43;33.90;;;4.80;99.90;;;4.70;78.80;100682.91;5073004;28;20106;-77
2020/12/09 01:40:04;;;;;;;48.00;30.80;;;4.70;99.90;;;4.75;78.78;100704.78;5074267;28;20044;-77
2020/12/09 01:42:33;;;;;;;62.70;38.30;;;4.60;99.90;;;4.62;78.01;100684.50;5073853;28;20048;-77
2020/12/09 01:45:01;;;;;;;71.20;42.07;;;4.70;99.90;;;4.54;77.68;100689.63;5074043;28;20129;-77
2020/12/09 01:47:29;;;;;;;74.33;44.57;;;4.60;99.90;;;4.67;77.89;100716.00;5073801;28;20032;-76
2020/12/09 01:49:58;;;;;;;79.40;45.70;;;4.60;99.90;;;4.66;77.47;100722.09;5073797;28;20547;-76
2020/12/09 01:52:27;;;;;;;77.43;45.37;;;4.60;99.90;;;4.67;77.65;100727.38;5073658;28;20041;-77
2020/12/09 01:54:55;;;;;;;81.43;45.97;;;4.60;99.90;;;4.72;77.94;100725.72;5073972;28;20045;-77
2020/12/09 01:57:26;;;;;;;86.10;46.17;;;4.60;99.90;;;4.71;78.51;100738.75;5073684;28;20067;-77
2020/12/09 01:59:53;;;;;;;99.60;46.23;;;4.60;99.90;;;4.77;78.74;100734.53;5073592;28;20048;-77
2020/12/09 02:02:20;;;;;;;105.50;44.63;;;4.60;99.90;;;4.71;78.65;100739.66;5073536;28;20048;-77
2020/12/09 02:04:49;;;;;;;89.60;46.53;;;4.60;99.90;;;4.72;79.06;100737.94;5073674;28;20440;-77
2020/12/09 02:07:20;;;;;;;104.85;49.00;;;4.60;99.90;;;4.70;79.17;100732.66;5073386;28;20037;-77
2020/12/09 02:10:00;;;;;;;85.30;46.33;;;4.60;99.90;;;4.65;79.37;100715.09;5073675;28;20071;-77
2020/12/09 02:12:32;;;;;;;101.13;48.88;;;4.60;99.90;;;4.58;79.94;100717.63;5073215;28;20055;-77
2020/12/09 02:15:00;;;;;;;88.83;47.80;;;4.60;99.90;;;4.65;78.81;100734.31;5073303;28;20486;-77
2020/12/09 02:17:28;;;;;;;101.87;47.90;;;4.60;99.90;;;4.56;79.53;100744.63;5073506;28;20071;-77
2020/12/09 02:20:00;;;;;;;88.87;46.60;;;4.50;99.90;;;4.50;79.72;100727.09;5072981;28;20424;-77
2020/12/09 02:22:32;;;;;;;79.60;47.73;;;4.40;99.90;;;4.56;79.79;100753.38;5073115;28;20044;-77
2020/12/09 02:24:59;;;;;;;83.27;47.00;;;4.40;99.90;;;4.60;79.83;100735.97;5073073;28;20097;-77
2020/12/09 02:27:26;;;;;;;75.27;44.70;;;4.40;99.90;;;4.60;79.67;100730.75;5072128;28;20076;-77
2020/12/09 02:29:55;;;;;;;62.67;40.63;;;4.40;99.90;;;4.65;79.69;100736.03;5073324;28;20090;-76
2020/12/09 02:32:23;;;;;;;65.17;41.33;;;4.40;99.90;;;4.67;79.90;100736.94;5071860;28;20079;-77
2020/12/09 02:34:50;;;;;;;65.23;42.57;;;4.50;99.90;;;4.64;79.68;100739.53;5073103;28;20044;-77
2020/12/09 02:37:18;;;;;;;68.43;43.20;;;4.50;99.90;;;4.67;80.07;100736.94;5072831;28;20483;-76
2020/12/09 02:39:46;;;;;;;63.30;41.77;;;4.50;99.90;;;4.68;79.71;100738.72;5072783;28;20520;-76
2020/12/09 02:42:13;;;;;;;61.63;40.93;;;4.60;99.90;;;4.50;80.05;100692.16;5072663;28;20058;-76
2020/12/09 02:44:44;;;;;;;64.97;42.13;;;4.60;99.90;;;4.57;79.92;100699.25;5072789;28;20044;-77
2020/12/09 02:47:11;;;;;;;65.73;42.70;;;4.60;99.90;;;4.82;79.71;100739.84;5072603;28;20089;-77
2020/12/09 02:49:39;;;;;;;71.93;40.87;;;4.70;99.90;;;4.75;79.88;100738.84;5072535;28;20044;-77
2020/12/09 02:52:07;;;;;;;81.43;41.37;;;4.60;99.90;;;4.57;79.89;100742.03;5072375;28;20048;-76
2020/12/09 02:54:36;;;;;;;132.60;42.70;;;4.50;99.90;;;4.38;80.10;100744.28;5072439;28;20044;-77
2020/12/09 02:57:05;;;;;;;88.10;41.40;;;4.40;99.90;;;4.09;80.84;100722.81;5071467;28;20040;-76
2020/12/09 02:59:32;;;;;;;88.00;41.87;;;4.30;99.90;;;4.17;81.50;100729.09;5071425;28;20464;-76
2020/12/09 03:02:00;;;;;;;68.60;42.30;;;4.20;99.90;;;4.33;81.65;100739.00;5072655;28;20048;-76
2020/12/09 03:04:27;;;;;;;68.50;40.97;;;4.20;99.90;;;4.23;82.05;100723.97;5072339;28;20044;-77
2020/12/09 03:06:55;;;;;;;65.87;40.60;;;4.20;99.90;;;4.43;81.80;100740.91;5072316;28;20035;-77
2020/12/09 03:09:24;;;;;;;89.77;41.37;;;4.30;99.90;;;4.10;81.58;100692.31;5072426;28;20057;-76
2020/12/09 03:11:51;;;;;;;66.27;41.20;;;4.30;99.90;;;4.37;82.01;100742.53;5072087;28;20068;-76
2020/12/09 03:14:24;;;;;;;66.57;41.23;;;4.20;99.90;;;4.43;82.01;100748.75;5072474;28;20056;-76
2020/12/09 03:16:51;;;;;;;77.67;41.20;;;4.30;99.90;;;4.44;81.60;100742.69;5072493;28;20067;-76
2020/12/09 03:19:19;;;;;;;61.47;39.63;;;4.30;99.90;;;4.49;81.66;100748.88;5072151;28;20044;-76
2020/12/09 03:21:48;;;;;;;64.53;41.27;;;4.40;99.90;;;3.18;80.85;100549.31;5071905;28;20064;-76
2020/12/09 03:24:15;;;;;;;57.97;37.73;;;4.40;99.90;;;4.44;81.34;100750.53;5071546;28;20099;-76
2020/12/09 03:26:43;;;;;;;77.67;38.93;;;4.30;99.90;;;4.34;80.94;100750.31;5072069;28;20169;-77
2020/12/09 03:29:10;;;;;;;54.50;35.97;;;4.20;99.90;;;4.34;80.71;100759.06;5072071;28;20048;-76
2020/12/09 03:31:41;;;;;;;64.18;35.40;;;4.20;99.90;;;4.33;80.56;100754.72;5071975;28;20516;-76
2020/12/09 03:34:10;;;;;;;54.55;35.13;;;4.20;99.90;;;4.21;81.07;100724.78;5072250;28;20102;-77
2020/12/09 03:36:37;;;;;;;59.20;35.90;;;4.20;99.90;;;4.28;80.90;100738.00;5072229;28;20135;-76
2020/12/09 03:39:08;;;;;;;49.75;33.38;;;4.20;99.90;;;4.39;80.99;100748.69;5072572;28;20044;-77
2020/12/09 03:41:35;;;;;;;48.53;32.30;;;4.20;99.90;;;4.47;81.01;100752.34;5070757;28;20496;-76
2020/12/09 03:44:03;;;;;;;58.07;33.50;;;4.30;99.90;;;4.45;80.66;100754.91;5072167;28;20444;-76
2020/12/09 03:46:30;;;;;;;50.57;33.67;;;4.30;99.90;;;4.36;80.81;100757.38;5071846;28;20048;-76
2020/12/09 03:49:03;;;;;;;59.67;36.27;;;4.30;99.90;;;4.15;80.57;100745.59;5072195;28;20040;-77
2020/12/09 03:51:32;;;;;;;60.58;36.47;;;4.20;99.90;;;4.25;81.04;100751.06;5071887;28;20041;-77
2020/12/09 03:54:00;;;;;;;67.67;36.67;;;4.20;99.90;;;4.09;81.45;100741.13;5071849;28;20052;-76
2020/12/09 03:56:30;;;;;;;;;;;4.10;99.90;;;3.30;81.71;100702.03;5072244;28;20049;-76
2020/12/09 03:59:01;;;;;;;62.65;37.70;;;4.00;99.90;;;3.93;82.44;100746.91;5072037;28;20408;-76
2020/12/09 04:01:28;;;;;;;86.73;39.30;;;4.00;99.90;;;3.83;82.80;100737.13;5071747;28;20094;-76
2020/12/09 04:03:56;;;;;;;70.70;40.20;;;3.90;99.90;;;3.75;83.31;100730.88;5070732;28;20053;-76
2020/12/09 04:06:24;;;;;;;88.47;41.27;;;3.90;99.90;;;3.86;83.42;100745.03;5071695;28;20409;-76
2020/12/09 04:08:53;;;;;;;76.75;42.97;;;3.90;99.90;;;3.59;83.88;100705.25;5071966;28;20047;-76
2020/12/09 04:11:20;;;;;;;120.13;46.90;;;3.90;99.90;;;3.75;84.06;100746.56;5071947;28;20049;-76
2020/12/09 04:13:48;;;;;;;89.43;44.30;;;3.80;99.90;;;3.71;84.31;100743.84;5070507;28;20057;-76
2020/12/09 04:16:15;;;;;;;73.73;41.87;;;3.70;99.90;;;3.60;84.70;100736.66;5071608;28;20517;-76
2020/12/09 04:18:42;;;;;;;135.43;49.73;;;3.70;99.90;;;3.21;85.29;100680.03;5071937;28;20044;-76
2020/12/09 04:21:11;;;;;;;108.23;43.00;;;3.60;99.90;;;3.50;85.20;100732.06;5071822;28;20057;-76
2020/12/09 04:23:41;;;;;;;109.80;43.37;;;3.50;99.90;;;2.94;86.37;100739.50;5071752;28;20044;-76
2020/12/09 04:26:08;;;;;;;92.27;43.87;;;3.10;99.90;;;2.91;87.15;100736.78;5071830;28;20086;-76
2020/12/09 04:28:35;;;;;;;113.17;43.97;;;2.90;99.90;;;2.81;87.94;100730.47;5071816;28;20044;-76
2020/12/09 04:31:03;;;;;;;101.57;44.97;;;2.80;99.90;;;2.88;88.26;100732.41;5071541;28;20040;-76
2020/12/09 04:33:32;;;;;;;76.60;43.30;;;2.80;99.90;;;3.19;88.67;100739.22;5070087;28;20055;-76
2020/12/09 04:36:03;;;;;;;88.03;44.20;;;3.00;99.90;;;3.36;88.03;100743.09;5074720;28;20151;-76
2020/12/09 04:38:32;;;;;;;100.53;44.07;;;3.20;99.90;;;3.57;87.46;100738.31;5075556;28;20482;-76
2020/12/09 04:41:01;;;;;;;122.70;46.33;;;3.50;99.90;;;3.65;87.10;100749.81;5075634;28;20127;-76
2020/12/09 04:43:32;;;;;;;110.10;48.37;;;3.70;99.90;;;3.64;86.90;100730.63;5075505;28;20049;-76
2020/12/09 04:46:01;;;;;;;97.93;50.23;;;3.80;99.90;;;3.85;86.38;100740.66;5075202;28;20158;-76
2020/12/09 04:48:29;;;;;;;102.73;49.13;;;3.90;99.90;;;3.94;86.04;100743.47;5075543;28;20086;-76
2020/12/09 04:51:29;;;;;;;86.27;48.93;;;3.90;99.90;;;4.08;86.14;100744.63;5075169;28;20044;-76
2020/12/09 04:54:00;;;;;;;78.93;45.97;;;4.00;99.90;;;4.10;85.56;100745.53;5074250;28;20056;-76
2020/12/09 04:56:37;;;;;;;77.60;46.30;;;4.10;99.90;;;4.07;85.34;100729.75;5075044;28;20048;-76
2020/12/09 04:59:14;;;;;;;100.43;46.70;;;4.10;99.90;;;4.29;85.15;100757.22;5075269;28;20427;-76
2020/12/09 05:02:03;;;;;;;78.43;43.33;;;4.20;99.90;;;4.34;85.04;100751.22;5075210;28;20052;-76
2020/12/09 05:04:34;;;;;;;77.32;45.55;;;4.20;99.90;;;4.39;84.73;100753.94;5074690;28;20049;-76
2020/12/09 05:07:09;;;;;;;77.47;44.73;;;4.30;99.90;;;4.39;84.33;100754.78;5075117;28;20044;-75
2020/12/09 05:09:43;;;;;;;71.83;43.63;;;4.30;99.90;;;4.38;84.15;100749.53;5074740;28;20033;-78
2020/12/09 05:12:16;;;;;;;78.30;44.17;;;4.30;99.90;;;3.75;83.52;100644.56;5074553;28;20505;-78
2020/12/09 05:14:47;;;;;;;70.53;44.13;;;4.30;99.90;;;4.27;83.65;100736.25;5073687;28;20076;-80
2020/12/09 05:17:18;;;;;;;80.33;44.17;;;4.30;99.90;;;4.33;83.59;100757.31;5074597;28;20578;-79
2020/12/09 05:19:47;;;;;;;70.27;42.07;;;4.30;99.90;;;4.33;83.54;100746.84;5074645;28;20063;-78
2020/12/09 05:22:18;;;;;;;67.93;41.67;;;4.30;99.90;;;4.45;83.09;100762.75;5073379;28;20490;-81
2020/12/09 05:24:46;;;;;;;94.53;41.55;;;4.40;99.90;;;4.30;83.22;100770.34;5074819;28;20051;-84
2020/12/09 05:27:14;;;;;;;86.90;43.97;;;4.30;99.90;;;3.93;83.81;100760.00;5074589;28;20040;-83
2020/12/09 05:29:47;;;;;;;71.70;41.70;;;4.10;99.90;;;4.04;83.40;100757.59;5074310;28;20044;-83
2020/12/09 05:32:15;;;;;;;81.83;44.17;;;4.10;99.90;;;4.07;83.35;100769.00;5074660;28;20098;-82
2020/12/09 05:34:42;;;;;;;127.30;43.93;;;4.10;99.90;;;3.61;84.15;100758.44;5074541;28;20064;-84
2020/12/09 05:37:12;;;;;;;136.30;45.33;;;3.80;99.90;;;3.27;84.92;100727.22;5074641;28;20074;-82
2020/12/09 05:39:51;;;;;;;84.75;44.72;;;3.60;99.90;;;3.34;86.21;100770.91;5074361;28;20044;-80
2020/12/09 05:42:23;;;;;;;143.60;48.57;;;3.40;99.90;;;2.99;86.84;100774.44;5074118;28;20044;-75
2020/12/09 05:44:51;;;;;;;104.10;45.63;;;3.20;99.90;;;2.94;87.38;100781.28;5073124;28;20387;-82
2020/12/09 05:47:20;;;;;;;114.30;46.83;;;3.10;99.90;;;2.45;88.74;100756.53;5072986;28;20044;-90
2020/12/09 05:49:47;;;;;;;185.53;46.83;;;2.70;99.90;;;2.41;89.31;100780.78;5073810;28;20517;-76
2020/12/09 05:52:18;;;;;;;187.17;49.27;;;2.50;99.90;;;2.26;89.92;100780.38;5073732;28;20048;-77
2020/12/09 05:54:47;;;;;;;89.93;42.30;;;2.40;99.90;;;2.23;91.16;100762.03;5074111;28;20096;-77
2020/12/09 05:57:16;;;;;;;127.40;46.10;;;2.30;99.90;;;2.29;91.09;100770.03;5074187;28;20090;-77
2020/12/09 05:59:47;;;;;;;198.63;50.10;;;2.30;99.90;;;1.93;91.46;100774.22;5072599;28;20130;-77
2020/12/09 06:02:18;;;;;;;115.83;48.50;;;2.10;99.90;;;2.10;92.04;100767.75;5073612;28;20707;-78
2020/12/09 06:04:54;;;;;;;187.37;50.17;;;2.10;99.90;;;1.56;92.58;100745.31;5073525;28;20425;-77
2020/12/09 06:07:24;;;;;;;171.30;48.73;;;1.90;99.90;;;1.84;92.92;100781.78;5073757;28;20099;-76
2020/12/09 06:10:04;;;;;;;192.27;50.15;;;1.90;99.90;;;1.37;93.42;100746.53;5073447;28;20044;-77
2020/12/09 06:12:49;;;;;;;197.65;49.13;;;1.70;99.90;;;0.62;94.21;100643.50;5071941;28;20379;-76
2020/12/09 06:15:19;;;;;;;186.57;51.67;;;1.60;99.90;;;1.57;94.67;100791.38;5106131;28;20535;-77
2020/12/09 06:17:46;;;;;;;117.00;50.10;;;1.60;99.90;;;1.72;94.86;100795.34;5073476;28;20118;-77
2020/12/09 06:20:14;;;;;;;97.27;47.20;;;1.70;99.90;;;1.82;94.98;100784.34;5071893;28;20594;-76
2020/12/09 06:22:41;;;;;;;156.30;55.10;;;1.80;99.90;;;1.69;94.85;100783.94;5073162;28;20045;-77
2020/12/09 06:25:09;;;;;;;117.80;55.90;;;1.80;99.90;;;1.89;94.85;100769.78;5073535;28;20036;-76
2020/12/09 06:27:38;;;;;;;175.83;58.60;;;1.90;99.90;;;1.59;94.64;100734.97;5073339;28;20075;-78
2020/12/09 06:30:06;;;;;;;140.60;55.77;;;2.00;99.90;;;1.80;94.54;100759.94;5073241;28;20132;-78
2020/12/09 06:32:46;;;;;;;150.47;56.93;;;2.00;99.90;;;1.92;94.70;100777.66;5072901;28;20047;-77
2020/12/09 06:35:19;;;;;;;216.48;61.53;;;2.00;99.90;;;1.82;94.39;100781.72;5073137;28;20464;-76
2020/12/09 06:38:14;;;;;;;161.63;59.53;;;2.00;99.90;;;2.03;94.39;100786.69;5072891;28;20372;-77
2020/12/09 06:41:10;;;;;;;151.17;61.93;;;2.10;99.90;;;1.95;94.37;100785.59;5072965;28;20055;-77
2020/12/09 06:44:08;;;;;;;190.70;61.67;;;2.10;99.90;;;1.95;94.05;100779.47;5072982;28;20053;-77
2020/12/09 06:46:42;;;;;;;165.63;63.07;;;2.10;99.90;;;1.86;94.53;100781.84;4991169;28;20137;-76
2020/12/09 06:49:37;;;;;;;193.30;64.90;;;1.90;99.90;;;1.77;94.69;100785.06;5057482;28;20056;-77
2020/12/09 06:52:40;;;;;;;177.20;67.73;;;1.90;99.90;;;1.74;94.91;100787.59;5072868;28;20109;-77
2020/12/09 06:55:07;;;;;;;236.30;70.20;;;1.80;99.90;;;1.80;95.35;100819.91;5072531;28;20037;-77
2020/12/09 06:57:40;;;;;;;207.80;69.13;;;1.80;99.90;;;1.73;95.28;100793.63;5072267;28;20041;-77
2020/12/09 07:00:20;;;;;;;215.00;74.90;;;1.80;99.90;;;1.68;95.41;100795.22;5072760;28;20501;-77
2020/12/09 07:02:52;;;;;;;285.17;79.93;;;1.70;99.90;;;1.68;95.56;100787.41;5071475;28;20058;-76
2020/12/09 07:05:30;;;;;;;188.97;76.03;;;1.80;99.90;;;1.82;95.64;100797.38;5072783;28;20049;-77
2020/12/09 07:08:04;;;;;;;237.83;76.37;;;1.90;99.90;;;1.90;95.51;100794.13;5071370;28;20048;-76
2020/12/09 07:10:33;;;;;;;236.70;78.37;;;1.90;99.90;;;1.35;95.42;100688.28;5105167;28;20053;-76
2020/12/09 07:13:09;;;;;;;231.87;77.80;;;2.00;99.90;;;1.97;95.17;100803.88;5072507;28;20079;-77
2020/12/09 07:15:39;;;;;;;268.97;78.67;;;2.00;99.90;;;1.72;95.24;100800.53;5072452;28;20044;-77
2020/12/09 07:18:07;;;;;;;187.27;76.80;;;1.90;99.90;;;1.02;95.32;100658.63;5072678;28;20048;-77
2020/12/09 07:20:35;;;;;;;202.17;72.83;;;1.90;99.90;;;1.78;95.39;100779.00;5070694;28;20056;-77
2020/12/09 07:23:04;;;;;;;197.83;73.00;;;2.00;99.90;;;1.82;95.52;100810.41;5072278;28;20127;-77
2020/12/09 07:25:32;;;;;;;213.37;73.50;;;1.90;99.90;;;1.60;95.81;100784.56;5072391;28;20398;-78
2020/12/09 07:28:00;;;;;;;221.10;74.87;;;1.80;99.90;;;1.95;96.16;100827.31;5072390;28;20098;-77
2020/12/09 07:30:29;;;;;;;230.97;73.60;;;2.00;99.90;;;1.60;96.19;100794.09;5072349;28;20044;-76
2020/12/09 07:32:56;;;;;;;224.20;75.43;;;1.80;99.90;;;1.67;96.42;100817.78;5071894;28;20032;-77
2020/12/09 07:35:24;;;;;;;223.20;70.93;;;1.80;99.90;;;1.51;96.68;100799.03;5072244;28;20052;-77
2020/12/09 07:37:55;;;;;;;239.47;73.83;;;1.80;99.90;;;1.37;96.76;100763.88;5070828;28;20047;-78
2020/12/09 07:40:27;;;;;;;259.53;75.83;;;1.70;99.90;;;1.67;97.01;100822.09;5072051;28;20059;-77
2020/12/09 07:43:01;;;;;;;174.50;72.90;;;1.80;99.90;;;0.60;96.67;100613.09;5072200;28;20040;-78
2020/12/09 07:45:32;;;;;;;281.87;75.33;;;1.90;99.90;;;1.71;96.79;100827.47;5072289;28;20040;-76
2020/12/09 07:48:02;;;;;;;229.67;70.83;;;1.80;99.90;;;1.50;96.97;100794.66;5072466;28;20051;-78
2020/12/09 07:50:30;;;;;;;210.37;72.37;;;1.70;99.90;;;1.52;96.91;100845.09;5070877;28;20048;-77
2020/12/09 07:52:58;;;;;;;310.93;76.03;;;1.70;99.90;;;1.53;97.15;100803.44;5071996;28;20040;-77
2020/12/09 07:55:27;;;;;;;308.67;79.57;;;1.80;99.90;;;1.70;97.28;100823.06;5072337;28;20052;-78
2020/12/09 07:58:05;;;;;;;209.27;71.37;;;1.80;99.90;;;1.71;96.96;100824.88;5070793;28;20074;-77
2020/12/09 08:00:37;;;;;;;239.20;77.10;;;1.80;99.90;;;1.57;96.79;100800.09;5072020;28;20040;-77
2020/12/09 08:03:06;;;;;;;262.40;74.60;;;1.80;99.90;;;1.62;96.64;100785.50;5071934;28;20056;-77
2020/12/09 08:05:38;;;;;;;240.20;72.63;;;1.90;99.90;;;1.76;96.60;100827.63;5070689;28;20040;-78
2020/12/09 08:08:12;;;;;;;318.13;75.47;;;1.90;99.90;;;1.33;96.41;100794.16;5071939;28;20045;-77
2020/12/09 08:10:43;;;;;;;271.87;69.93;;;1.60;99.90;;;1.30;97.08;100782.72;5074155;28;20047;-78
2020/12/09 08:13:13;;;;;;;251.90;68.63;;;1.60;99.90;;;1.38;97.36;100820.31;5075948;28;20040;-77
2020/12/09 08:15:43;;;;;;;200.63;68.70;;;1.50;99.90;;;0.97;97.51;100751.31;5075736;28;20143;-77
2020/12/09 08:18:22;;;;;;;284.60;67.30;;;1.50;99.90;;;1.15;97.93;100823.91;5075371;28;20040;-79
2020/12/09 08:20:54;;;;;;;246.30;65.97;;;1.30;99.90;;;1.11;98.34;100814.25;5075475;28;20776;-79
2020/12/09 08:23:23;;;;;;;281.60;68.47;;;1.30;99.90;;;0.90;98.59;100770.19;5074421;28;20075;-78
2020/12/09 08:25:53;;;;;;;249.10;65.13;;;1.30;99.90;;;1.23;98.94;100819.84;5075300;28;20449;-79
2020/12/09 08:28:23;;;;;;;292.57;72.53;;;1.30;99.90;;;1.34;99.32;100816.75;5075409;28;20048;-79
2020/12/09 08:30:51;;;;;;;257.20;68.70;;;1.40;99.90;;;1.40;99.33;100823.88;5075788;28;20048;-79
2020/12/09 08:33:25;;;;;;;210.87;67.40;;;1.50;99.90;;;1.48;99.30;100822.38;5075385;28;20041;-78
2020/12/09 08:35:58;;;;;;;230.23;66.50;;;1.50;99.90;;;1.27;99.03;100798.28;5075241;28;20090;-78
2020/12/09 08:38:32;;;;;;;234.63;65.80;;;1.50;99.90;;;1.40;99.24;100823.88;5075475;28;20051;-78
2020/12/09 08:41:18;;;;;;;210.75;62.13;;;1.50;99.90;;;1.41;98.85;100815.22;5073933;28;20052;-78
2020/12/09 08:43:46;;;;;;;211.53;61.77;;;1.50;99.90;;;1.22;98.94;100813.75;5075136;28;20045;-79
2020/12/09 08:46:14;;;;;;;268.53;63.83;;;1.40;99.90;;;0.99;99.25;100773.06;5074974;28;20449;-78
2020/12/09 08:48:42;;;;;;;177.00;60.37;;;1.40;99.90;;;1.16;99.59;100813.53;5075486;28;20051;-79
2020/12/09 08:51:10;;;;;;;169.53;56.40;;;1.30;99.90;;;1.25;99.70;100826.00;5074834;28;20547;-78
2020/12/09 08:53:38;;;;;;;152.87;58.23;;;1.30;99.90;;;1.26;99.63;100833.00;5074670;28;20497;-77
2020/12/09 08:56:06;;;;;;;141.13;59.27;;;1.30;99.90;;;1.43;99.71;100831.78;5074978;28;20423;-78
2020/12/09 08:58:33;;;;;;;133.77;57.67;;;1.40;99.90;;;1.56;99.53;100826.13;5073651;28;20497;-78
2020/12/09 09:01:01;;;;;;;151.97;58.80;;;1.60;99.90;;;1.65;99.29;100826.38;5074994;28;20127;-78
2020/12/09 09:03:29;;;;;;;156.97;56.67;;;1.70;99.90;;;1.52;98.91;100814.72;5074737;28;20040;-77
2020/12/09 09:05:58;;;;;;;139.43;56.80;;;1.70;99.90;;;1.43;98.67;100771.88;5074637;28;20079;-77
2020/12/09 09:08:26;;;;;;;154.10;56.17;;;1.70;99.90;;;1.59;98.77;100811.44;5073564;28;20383;-77
2020/12/09 09:10:54;;;;;;;183.00;54.70;;;1.70;99.90;;;0.87;98.62;100741.47;5074605;28;20371;-77
2020/12/09 09:13:22;;;;;;;172.33;57.97;;;1.70;99.90;;;1.48;98.67;100814.56;5074752;28;20109;-77
2020/12/09 09:15:49;;;;;;;156.03;55.37;;;1.60;99.90;;;1.74;99.03;100822.34;5074764;28;20532;-77
2020/12/09 09:18:17;;;;;;;146.77;57.57;;;1.80;99.90;;;1.79;98.89;100812.94;5074395;28;20401;-78
2020/12/09 09:20:44;;;;;;;156.60;58.80;;;1.80;99.90;;;1.79;98.68;100814.66;5074061;28;20112;-77
2020/12/09 09:23:12;;;;;;;160.50;58.93;;;1.90;99.90;;;1.98;98.60;100848.25;5074310;28;20037;-77
2020/12/09 09:25:39;;;;;;;144.07;55.93;;;2.00;99.90;;;1.99;98.31;100794.38;5074591;28;20155;-79
2020/12/09 09:28:08;;;;;;;138.07;57.43;;;2.10;99.90;;;2.13;97.93;100804.34;5074526;28;20040;-77
2020/12/09 09:30:35;;;;;;;153.53;58.57;;;2.20;99.90;;;2.18;97.53;100814.91;5074500;28;20444;-77
2020/12/09 09:33:03;;;;;;;151.83;58.87;;;2.20;99.90;;;2.09;97.04;100781.63;5074087;28;20541;-78
2020/12/09 09:35:30;;;;;;;138.43;57.57;;;2.40;99.90;;;2.22;96.50;100822.88;5074201;28;20714;-78
2020/12/09 09:37:57;;;;;;;149.00;56.37;;;2.40;99.90;;;2.36;96.83;100818.06;5074308;28;20559;-77
2020/12/09 09:40:25;;;;;;;136.77;52.43;;;2.50;99.90;;;1.80;96.27;100731.28;5073948;28;20040;-77
2020/12/09 09:42:55;;;;;;;136.50;51.05;;;2.50;99.90;;;2.20;95.66;100832.41;5072740;28;20056;-78
2020/12/09 09:45:25;;;;;;;122.57;48.13;;;2.40;99.90;;;-0.48;95.28;100387.84;5074176;28;20060;-77
2020/12/09 09:47:52;;;;;;;125.07;49.50;;;2.30;99.90;;;2.08;95.81;100829.44;5074186;28;20142;-76
2020/12/09 09:50:20;;;;;;;123.63;49.80;;;2.20;99.90;;;2.09;95.78;100843.38;5074042;28;20675;-78
2020/12/09 09:52:48;;;;;;;127.27;51.60;;;2.20;99.90;;;2.16;95.81;100829.66;5073041;28;20058;-78
2020/12/09 09:55:16;;;;;;;128.03;52.10;;;2.30;99.90;;;2.20;95.87;100836.72;5072675;28;20589;-78
2020/12/09 09:57:43;;;;;;;116.47;46.67;;;2.30;99.90;;;1.98;96.16;100831.72;5072596;28;20053;-78
2020/12/09 10:00:11;;;;;;;125.33;48.27;;;2.10;99.90;;;1.86;96.52;100829.63;5073629;28;20050;-79
2020/12/09 10:02:41;;;;;;;110.87;45.93;;;2.00;99.90;;;1.85;96.80;100838.31;5073718;28;20040;-78
2020/12/09 10:05:09;;;;;;;110.13;48.23;;;1.90;99.90;;;1.97;97.25;100823.03;5073759;28;20448;-78
2020/12/09 10:07:37;;;;;;;124.13;48.77;;;2.00;99.90;;;1.95;97.27;100822.09;5073811;28;20044;-78
2020/12/09 10:10:04;;;;;;;169.17;48.63;;;2.00;99.90;;;1.71;97.12;100837.91;5073400;28;20056;-78
2020/12/09 10:12:32;;;;;;;128.53;47.33;;;1.90;99.90;;;1.90;97.38;100820.19;5073211;28;20067;-77
2020/12/09 10:14:59;;;;;;;110.50;46.03;;;1.90;99.90;;;1.83;97.42;100814.81;5073538;28;20049;-78
2020/12/09 10:17:26;;;;;;;109.43;47.13;;;1.90;99.90;;;1.89;97.44;100813.19;5073533;28;20144;-79
2020/12/09 10:19:56;;;;;;;126.53;47.17;;;1.90;99.90;;;1.90;97.16;100805.41;5072994;28;20079;-79
2020/12/09 10:22:26;;;;;;;136.93;50.37;;;1.90;99.90;;;1.98;97.55;100796.09;5073524;28;20070;-78
2020/12/09 10:24:54;;;;;;;131.30;48.13;;;2.00;99.90;;;1.90;97.45;100762.84;5073052;28;20123;-78